sensor_id;sensor_type;location;lat;lon;timestamp;temperature;humidity
78571;SHT31;67861;51.966;5.672;2023-05-28T00:01:45;17.9;49.7
78571;SHT31;67861;51.966;5.672;2023-05-28T00:04:15;17.8;49.7
78571;SHT31;67861;51.966;5.672;2023-05-28T00:06:45;17.8;50.1
78571;SHT31;67861;51.966;5.672;2023-05-28T00:09:16;17.7;50.7
78571;SHT31;67861;51.966;5.672;2023-05-28T00:11:45;17.7;51.3
78571;SHT31;67861;51.966;5.672;2023-05-28T00:14:15;17.6;51.4
78571;SHT31;67861;51.966;5.672;2023-05-28T00:16:45;17.6;52.1
78571;SHT31;67861;51.966;5.672;2023-05-28T00:19:21;17.6;52.3
78571;SHT31;67861;51.966;5.672;2023-05-28T00:21:51;17.6;52.3
78571;SHT31;67861;51.966;5.672;2023-05-28T00:24:20;17.6;52.5
78571;SHT31;67861;51.966;5.672;2023-05-28T00:26:50;17.5;52.6
78571;SHT31;67861;51.966;5.672;2023-05-28T00:29:19;17.5;52.4
78571;SHT31;67861;51.966;5.672;2023-05-28T00:31:51;17.5;52.7
78571;SHT31;67861;51.966;5.672;2023-05-28T00:34:23;17.5;52.8
78571;SHT31;67861;51.966;5.672;2023-05-28T00:36:53;17.4;52.6
78571;SHT31;67861;51.966;5.672;2023-05-28T00:39:22;17.4;52.7
78571;SHT31;67861;51.966;5.672;2023-05-28T00:42:01;17.4;52.5
78571;SHT31;67861;51.966;5.672;2023-05-28T00:44:31;17.4;52.7
78571;SHT31;67861;51.966;5.672;2023-05-28T00:47:02;17.3;52.8
78571;SHT31;67861;51.966;5.672;2023-05-28T00:49:31;17.3;53.2
78571;SHT31;67861;51.966;5.672;2023-05-28T00:52:03;17.3;53.4
78571;SHT31;67861;51.966;5.672;2023-05-28T00:54:33;17.2;53.8
78571;SHT31;67861;51.966;5.672;2023-05-28T00:57:08;17.2;54.4
78571;SHT31;67861;51.966;5.672;2023-05-28T00:59:38;17.1;54.7
78571;SHT31;67861;51.966;5.672;2023-05-28T01:02:14;17.1;55.4
78571;SHT31;67861;51.966;5.672;2023-05-28T01:04:43;17.1;55.5
78571;SHT31;67861;51.966;5.672;2023-05-28T01:07:13;17.1;55.5
78571;SHT31;67861;51.966;5.672;2023-05-28T01:09:44;17.1;55.6
78571;SHT31;67861;51.966;5.672;2023-05-28T01:12:14;17.1;55.7
78571;SHT31;67861;51.966;5.672;2023-05-28T01:14:45;17.0;55.7
78571;SHT31;67861;51.966;5.672;2023-05-28T01:17:16;17.0;56.0
78571;SHT31;67861;51.966;5.672;2023-05-28T01:19:45;17.0;56.0
78571;SHT31;67861;51.966;5.672;2023-05-28T01:22:17;16.9;56.3
78571;SHT31;67861;51.966;5.672;2023-05-28T01:24:49;16.9;56.2
78571;SHT31;67861;51.966;5.672;2023-05-28T01:27:24;16.9;56.7
78571;SHT31;67861;51.966;5.672;2023-05-28T01:29:55;16.9;57.0
78571;SHT31;67861;51.966;5.672;2023-05-28T01:32:25;16.8;57.3
78571;SHT31;67861;51.966;5.672;2023-05-28T01:34:54;16.8;57.8
78571;SHT31;67861;51.966;5.672;2023-05-28T01:37:25;16.8;57.8
78571;SHT31;67861;51.966;5.672;2023-05-28T01:39:57;16.7;57.7
78571;SHT31;67861;51.966;5.672;2023-05-28T01:42:28;16.7;57.8
78571;SHT31;67861;51.966;5.672;2023-05-28T01:44:59;16.7;58.3
78571;SHT31;67861;51.966;5.672;2023-05-28T01:47:29;16.7;58.7
78571;SHT31;67861;51.966;5.672;2023-05-28T01:50:01;16.7;58.9
78571;SHT31;67861;51.966;5.672;2023-05-28T01:52:31;16.7;58.8
78571;SHT31;67861;51.966;5.672;2023-05-28T01:55:00;16.7;58.7
78571;SHT31;67861;51.966;5.672;2023-05-28T01:57:32;16.7;58.5
78571;SHT31;67861;51.966;5.672;2023-05-28T02:00:02;16.6;58.2
78571;SHT31;67861;51.966;5.672;2023-05-28T02:02:33;16.6;58.3
78571;SHT31;67861;51.966;5.672;2023-05-28T02:05:04;16.6;58.4
78571;SHT31;67861;51.966;5.672;2023-05-28T02:07:34;16.6;58.5
78571;SHT31;67861;51.966;5.672;2023-05-28T02:10:04;16.5;58.2
78571;SHT31;67861;51.966;5.672;2023-05-28T02:12:34;16.5;58.6
78571;SHT31;67861;51.966;5.672;2023-05-28T02:15:04;16.5;58.3
78571;SHT31;67861;51.966;5.672;2023-05-28T02:17:34;16.5;58.5
78571;SHT31;67861;51.966;5.672;2023-05-28T02:20:04;16.4;58.3
78571;SHT31;67861;51.966;5.672;2023-05-28T02:22:35;16.4;58.5
78571;SHT31;67861;51.966;5.672;2023-05-28T02:25:05;16.4;58.5
78571;SHT31;67861;51.966;5.672;2023-05-28T02:27:35;16.4;58.8
78571;SHT31;67861;51.966;5.672;2023-05-28T02:30:05;16.4;58.6
78571;SHT31;67861;51.966;5.672;2023-05-28T02:32:37;16.4;58.5
78571;SHT31;67861;51.966;5.672;2023-05-28T02:35:08;16.4;58.9
78571;SHT31;67861;51.966;5.672;2023-05-28T02:37:37;16.4;58.6
78571;SHT31;67861;51.966;5.672;2023-05-28T02:40:08;16.4;58.4
78571;SHT31;67861;51.966;5.672;2023-05-28T02:42:39;16.4;58.2
78571;SHT31;67861;51.966;5.672;2023-05-28T02:45:09;16.4;58.0
78571;SHT31;67861;51.966;5.672;2023-05-28T02:47:39;16.4;58.0
78571;SHT31;67861;51.966;5.672;2023-05-28T02:50:09;16.4;58.1
78571;SHT31;67861;51.966;5.672;2023-05-28T02:52:38;16.4;58.0
78571;SHT31;67861;51.966;5.672;2023-05-28T02:55:10;16.4;57.6
78571;SHT31;67861;51.966;5.672;2023-05-28T02:57:40;16.4;57.7
78571;SHT31;67861;51.966;5.672;2023-05-28T03:00:13;16.4;58.0
78571;SHT31;67861;51.966;5.672;2023-05-28T03:02:43;16.4;58.0
78571;SHT31;67861;51.966;5.672;2023-05-28T03:05:12;16.4;57.6
78571;SHT31;67861;51.966;5.672;2023-05-28T03:07:42;16.4;58.0
78571;SHT31;67861;51.966;5.672;2023-05-28T03:10:12;16.4;58.0
78571;SHT31;67861;51.966;5.672;2023-05-28T03:12:41;16.4;58.0
78571;SHT31;67861;51.966;5.672;2023-05-28T03:15:11;16.3;58.3
78571;SHT31;67861;51.966;5.672;2023-05-28T03:17:41;16.3;58.5
78571;SHT31;67861;51.966;5.672;2023-05-28T03:20:14;16.3;58.4
78571;SHT31;67861;51.966;5.672;2023-05-28T03:22:48;16.4;58.5
78571;SHT31;67861;51.966;5.672;2023-05-28T03:25:18;16.4;58.5
78571;SHT31;67861;51.966;5.672;2023-05-28T03:27:47;16.3;58.5
78571;SHT31;67861;51.966;5.672;2023-05-28T03:30:17;16.3;58.6
78571;SHT31;67861;51.966;5.672;2023-05-28T03:32:47;16.3;58.9
78571;SHT31;67861;51.966;5.672;2023-05-28T03:35:17;16.3;59.0
78571;SHT31;67861;51.966;5.672;2023-05-28T03:37:47;16.2;58.9
78571;SHT31;67861;51.966;5.672;2023-05-28T03:40:17;16.2;59.1
78571;SHT31;67861;51.966;5.672;2023-05-28T03:42:46;16.2;59.3
78571;SHT31;67861;51.966;5.672;2023-05-28T03:45:16;16.1;59.3
78571;SHT31;67861;51.966;5.672;2023-05-28T03:47:46;16.1;59.3
78571;SHT31;67861;51.966;5.672;2023-05-28T03:50:15;16.1;59.6
78571;SHT31;67861;51.966;5.672;2023-05-28T03:52:45;16.0;59.7
78571;SHT31;67861;51.966;5.672;2023-05-28T03:55:20;16.0;59.7
78571;SHT31;67861;51.966;5.672;2023-05-28T03:57:49;16.0;59.7
78571;SHT31;67861;51.966;5.672;2023-05-28T04:00:19;16.0;59.6
78571;SHT31;67861;51.966;5.672;2023-05-28T04:02:48;16.0;59.8
78571;SHT31;67861;51.966;5.672;2023-05-28T04:05:18;16.0;59.9
78571;SHT31;67861;51.966;5.672;2023-05-28T04:07:48;16.1;60.2
78571;SHT31;67861;51.966;5.672;2023-05-28T04:10:18;16.1;59.8
78571;SHT31;67861;51.966;5.672;2023-05-28T04:12:47;16.1;59.8
78571;SHT31;67861;51.966;5.672;2023-05-28T04:15:17;16.2;59.5
78571;SHT31;67861;51.966;5.672;2023-05-28T04:17:47;16.2;59.3
78571;SHT31;67861;51.966;5.672;2023-05-28T04:20:17;16.2;58.9
78571;SHT31;67861;51.966;5.672;2023-05-28T04:22:48;16.2;59.1
78571;SHT31;67861;51.966;5.672;2023-05-28T04:25:18;16.2;59.1
78571;SHT31;67861;51.966;5.672;2023-05-28T04:27:50;16.2;59.5
78571;SHT31;67861;51.966;5.672;2023-05-28T04:30:20;16.2;59.4
78571;SHT31;67861;51.966;5.672;2023-05-28T04:32:50;16.2;59.3
78571;SHT31;67861;51.966;5.672;2023-05-28T04:35:21;16.2;59.5
78571;SHT31;67861;51.966;5.672;2023-05-28T04:37:50;16.2;59.6
78571;SHT31;67861;51.966;5.672;2023-05-28T04:40:20;16.2;59.8
78571;SHT31;67861;51.966;5.672;2023-05-28T04:42:50;16.2;59.8
78571;SHT31;67861;51.966;5.672;2023-05-28T04:45:21;16.2;59.9
78571;SHT31;67861;51.966;5.672;2023-05-28T04:47:54;16.1;60.0
78571;SHT31;67861;51.966;5.672;2023-05-28T04:50:24;16.1;60.2
78571;SHT31;67861;51.966;5.672;2023-05-28T04:52:54;16.1;60.5
78571;SHT31;67861;51.966;5.672;2023-05-28T04:55:24;16.1;60.4
78571;SHT31;67861;51.966;5.672;2023-05-28T04:57:54;16.1;60.5
78571;SHT31;67861;51.966;5.672;2023-05-28T05:00:29;16.0;60.7
78571;SHT31;67861;51.966;5.672;2023-05-28T05:02:58;16.0;60.9
78571;SHT31;67861;51.966;5.672;2023-05-28T05:05:28;16.0;60.7
78571;SHT31;67861;51.966;5.672;2023-05-28T05:07:57;15.9;61.2
78571;SHT31;67861;51.966;5.672;2023-05-28T05:10:27;15.9;61.1
78571;SHT31;67861;51.966;5.672;2023-05-28T05:12:57;15.9;61.3
78571;SHT31;67861;51.966;5.672;2023-05-28T05:15:27;16.0;61.3
78571;SHT31;67861;51.966;5.672;2023-05-28T05:18:00;16.0;61.2
78571;SHT31;67861;51.966;5.672;2023-05-28T05:20:29;16.0;61.3
78571;SHT31;67861;51.966;5.672;2023-05-28T05:22:59;16.1;62.0
78571;SHT31;67861;51.966;5.672;2023-05-28T05:25:31;16.1;61.4
78571;SHT31;67861;51.966;5.672;2023-05-28T05:28:00;16.1;61.1
78571;SHT31;67861;51.966;5.672;2023-05-28T05:30:30;16.1;61.1
78571;SHT31;67861;51.966;5.672;2023-05-28T05:32:59;16.2;60.9
78571;SHT31;67861;51.966;5.672;2023-05-28T05:35:29;16.2;60.7
78571;SHT31;67861;51.966;5.672;2023-05-28T05:37:59;16.3;61.0
78571;SHT31;67861;51.966;5.672;2023-05-28T05:40:29;16.3;60.3
78571;SHT31;67861;51.966;5.672;2023-05-28T05:42:58;16.4;60.1
78571;SHT31;67861;51.966;5.672;2023-05-28T05:45:28;16.4;60.0
78571;SHT31;67861;51.966;5.672;2023-05-28T05:47:57;16.4;59.9
78571;SHT31;67861;51.966;5.672;2023-05-28T05:50:27;16.4;60.1
78571;SHT31;67861;51.966;5.672;2023-05-28T05:52:56;16.4;60.1
78571;SHT31;67861;51.966;5.672;2023-05-28T05:55:26;16.4;60.1
78571;SHT31;67861;51.966;5.672;2023-05-28T05:57:56;16.4;60.2
78571;SHT31;67861;51.966;5.672;2023-05-28T06:00:26;16.4;60.2
78571;SHT31;67861;51.966;5.672;2023-05-28T06:02:56;16.5;60.1
78571;SHT31;67861;51.966;5.672;2023-05-28T06:05:26;16.5;60.4
78571;SHT31;67861;51.966;5.672;2023-05-28T06:07:56;16.5;60.4
78571;SHT31;67861;51.966;5.672;2023-05-28T06:10:25;16.5;60.7
78571;SHT31;67861;51.966;5.672;2023-05-28T06:12:55;16.6;60.5
78571;SHT31;67861;51.966;5.672;2023-05-28T06:15:29;16.6;59.9
78571;SHT31;67861;51.966;5.672;2023-05-28T06:17:59;16.6;59.7
78571;SHT31;67861;51.966;5.672;2023-05-28T06:20:29;16.7;59.6
78571;SHT31;67861;51.966;5.672;2023-05-28T06:22:59;16.7;60.4
78571;SHT31;67861;51.966;5.672;2023-05-28T06:25:29;16.8;59.8
78571;SHT31;67861;51.966;5.672;2023-05-28T06:27:58;16.8;59.5
78571;SHT31;67861;51.966;5.672;2023-05-28T06:30:28;16.9;59.7
78571;SHT31;67861;51.966;5.672;2023-05-28T06:32:57;16.9;59.2
78571;SHT31;67861;51.966;5.672;2023-05-28T06:35:27;16.9;59.4
78571;SHT31;67861;51.966;5.672;2023-05-28T06:37:57;16.9;59.1
78571;SHT31;67861;51.966;5.672;2023-05-28T06:40:27;17.0;59.0
78571;SHT31;67861;51.966;5.672;2023-05-28T06:42:57;17.0;59.6
78571;SHT31;67861;51.966;5.672;2023-05-28T06:45:28;17.0;59.6
78571;SHT31;67861;51.966;5.672;2023-05-28T06:48:07;17.0;59.8
78571;SHT31;67861;51.966;5.672;2023-05-28T06:50:36;17.1;58.8
78571;SHT31;67861;51.966;5.672;2023-05-28T06:53:06;17.1;59.1
78571;SHT31;67861;51.966;5.672;2023-05-28T06:55:36;17.2;59.5
78571;SHT31;67861;51.966;5.672;2023-05-28T06:58:08;17.2;59.8
78571;SHT31;67861;51.966;5.672;2023-05-28T07:00:38;17.3;59.9
78571;SHT31;67861;51.966;5.672;2023-05-28T07:03:08;17.4;60.6
78571;SHT31;67861;51.966;5.672;2023-05-28T07:05:37;17.5;59.0
78571;SHT31;67861;51.966;5.672;2023-05-28T07:08:09;17.6;60.5
78571;SHT31;67861;51.966;5.672;2023-05-28T07:10:40;17.8;58.3
78571;SHT31;67861;51.966;5.672;2023-05-28T07:13:09;17.9;57.2
78571;SHT31;67861;51.966;5.672;2023-05-28T07:15:39;18.0;57.0
78571;SHT31;67861;51.966;5.672;2023-05-28T07:18:08;18.1;57.9
78571;SHT31;67861;51.966;5.672;2023-05-28T07:20:38;18.2;57.1
78571;SHT31;67861;51.966;5.672;2023-05-28T07:23:17;18.3;57.5
78571;SHT31;67861;51.966;5.672;2023-05-28T07:25:47;18.4;56.0
78571;SHT31;67861;51.966;5.672;2023-05-28T07:28:16;18.5;56.8
78571;SHT31;67861;51.966;5.672;2023-05-28T07:30:48;18.6;56.1
78571;SHT31;67861;51.966;5.672;2023-05-28T07:33:21;18.8;55.4
78571;SHT31;67861;51.966;5.672;2023-05-28T07:35:53;18.9;55.9
78571;SHT31;67861;51.966;5.672;2023-05-28T07:38:23;19.0;55.4
78571;SHT31;67861;51.966;5.672;2023-05-28T07:40:54;19.1;55.7
78571;SHT31;67861;51.966;5.672;2023-05-28T07:43:24;19.3;54.9
78571;SHT31;67861;51.966;5.672;2023-05-28T07:45:53;19.4;54.0
78571;SHT31;67861;51.966;5.672;2023-05-28T07:48:23;19.5;53.5
78571;SHT31;67861;51.966;5.672;2023-05-28T07:50:53;19.7;53.4
78571;SHT31;67861;51.966;5.672;2023-05-28T07:53:24;19.8;52.5
78571;SHT31;67861;51.966;5.672;2023-05-28T07:55:59;20.0;51.7
78571;SHT31;67861;51.966;5.672;2023-05-28T07:58:28;20.2;50.5
78571;SHT31;67861;51.966;5.672;2023-05-28T08:00:58;20.3;50.1
78571;SHT31;67861;51.966;5.672;2023-05-28T08:03:28;20.4;50.3
78571;SHT31;67861;51.966;5.672;2023-05-28T08:05:57;20.5;50.2
78571;SHT31;67861;51.966;5.672;2023-05-28T08:08:27;20.6;51.7
78571;SHT31;67861;51.966;5.672;2023-05-28T08:10:57;20.7;50.4
78571;SHT31;67861;51.966;5.672;2023-05-28T08:13:27;20.7;49.2
78571;SHT31;67861;51.966;5.672;2023-05-28T08:15:58;20.8;48.7
78571;SHT31;67861;51.966;5.672;2023-05-28T08:18:30;20.8;48.6
78571;SHT31;67861;51.966;5.672;2023-05-28T08:21:00;20.9;48.0
78571;SHT31;67861;51.966;5.672;2023-05-28T08:23:29;20.9;48.3
78571;SHT31;67861;51.966;5.672;2023-05-28T08:26:02;21.0;47.7
78571;SHT31;67861;51.966;5.672;2023-05-28T08:28:32;21.0;48.8
78571;SHT31;67861;51.966;5.672;2023-05-28T08:31:01;21.1;47.9
78571;SHT31;67861;51.966;5.672;2023-05-28T08:33:31;21.1;47.8
78571;SHT31;67861;51.966;5.672;2023-05-28T08:36:01;21.2;47.1
78571;SHT31;67861;51.966;5.672;2023-05-28T08:38:31;21.3;45.3
78571;SHT31;67861;51.966;5.672;2023-05-28T08:41:02;21.4;46.0
78571;SHT31;67861;51.966;5.672;2023-05-28T08:43:33;21.5;44.6
78571;SHT31;67861;51.966;5.672;2023-05-28T08:46:05;21.6;44.8
78571;SHT31;67861;51.966;5.672;2023-05-28T08:48:36;21.7;43.7
78571;SHT31;67861;51.966;5.672;2023-05-28T08:51:06;21.8;44.0
78571;SHT31;67861;51.966;5.672;2023-05-28T08:53:40;21.8;43.2
78571;SHT31;67861;51.966;5.672;2023-05-28T08:56:10;21.9;44.5
78571;SHT31;67861;51.966;5.672;2023-05-28T08:58:40;22.0;43.8
78571;SHT31;67861;51.966;5.672;2023-05-28T09:01:11;22.1;42.7
78571;SHT31;67861;51.966;5.672;2023-05-28T09:03:40;22.2;42.0
78571;SHT31;67861;51.966;5.672;2023-05-28T09:06:10;22.3;41.5
78571;SHT31;67861;51.966;5.672;2023-05-28T09:08:40;22.4;41.9
78571;SHT31;67861;51.966;5.672;2023-05-28T09:11:12;22.4;41.7
78571;SHT31;67861;51.966;5.672;2023-05-28T09:13:42;22.5;40.5
78571;SHT31;67861;51.966;5.672;2023-05-28T09:16:21;22.6;41.3
78571;SHT31;67861;51.966;5.672;2023-05-28T09:19:03;22.7;42.0
78571;SHT31;67861;51.966;5.672;2023-05-28T09:21:36;22.8;41.9
78571;SHT31;67861;51.966;5.672;2023-05-28T09:24:06;22.9;40.4
78571;SHT31;67861;51.966;5.672;2023-05-28T09:26:36;23.0;41.8
78571;SHT31;67861;51.966;5.672;2023-05-28T09:29:12;23.2;38.4
78571;SHT31;67861;51.966;5.672;2023-05-28T09:31:42;23.3;38.3
78571;SHT31;67861;51.966;5.672;2023-05-28T09:34:12;23.4;39.1
78571;SHT31;67861;51.966;5.672;2023-05-28T09:36:42;23.5;37.3
78571;SHT31;67861;51.966;5.672;2023-05-28T09:39:14;23.5;37.4
78571;SHT31;67861;51.966;5.672;2023-05-28T09:41:45;23.5;39.2
78571;SHT31;67861;51.966;5.672;2023-05-28T09:44:19;23.6;37.8
78571;SHT31;67861;51.966;5.672;2023-05-28T09:46:51;23.6;37.6
78571;SHT31;67861;51.966;5.672;2023-05-28T09:49:20;23.6;38.6
78571;SHT31;67861;51.966;5.672;2023-05-28T09:51:52;23.7;38.1
78571;SHT31;67861;51.966;5.672;2023-05-28T09:54:25;23.7;38.6
78571;SHT31;67861;51.966;5.672;2023-05-28T09:56:59;23.8;39.0
78571;SHT31;67861;51.966;5.672;2023-05-28T09:59:34;23.8;39.2
78571;SHT31;67861;51.966;5.672;2023-05-28T10:02:14;23.8;37.8
78571;SHT31;67861;51.966;5.672;2023-05-28T10:04:54;23.9;38.7
78571;SHT31;67861;51.966;5.672;2023-05-28T10:07:28;24.0;39.2
78571;SHT31;67861;51.966;5.672;2023-05-28T10:10:00;24.0;38.8
78571;SHT31;67861;51.966;5.672;2023-05-28T10:12:34;24.2;38.6
78571;SHT31;67861;51.966;5.672;2023-05-28T10:15:07;24.3;37.5
78571;SHT31;67861;51.966;5.672;2023-05-28T10:17:39;24.4;38.5
78571;SHT31;67861;51.966;5.672;2023-05-28T10:20:09;24.5;39.9
78571;SHT31;67861;51.966;5.672;2023-05-28T10:22:40;24.5;35.9
78571;SHT31;67861;51.966;5.672;2023-05-28T10:25:11;24.6;37.3
78571;SHT31;67861;51.966;5.672;2023-05-28T10:27:45;24.7;37.5
78571;SHT31;67861;51.966;5.672;2023-05-28T10:30:32;24.7;36.1
78571;SHT31;67861;51.966;5.672;2023-05-28T10:33:07;24.8;37.7
78571;SHT31;67861;51.966;5.672;2023-05-28T10:35:52;24.8;37.0
78571;SHT31;67861;51.966;5.672;2023-05-28T10:38:23;24.9;35.9
78571;SHT31;67861;51.966;5.672;2023-05-28T10:40:59;24.9;37.5
78571;SHT31;67861;51.966;5.672;2023-05-28T10:43:45;25.0;36.8
78571;SHT31;67861;51.966;5.672;2023-05-28T10:46:19;25.0;36.1
78571;SHT31;67861;51.966;5.672;2023-05-28T10:49:13;25.0;36.0
78571;SHT31;67861;51.966;5.672;2023-05-28T10:51:59;25.1;37.0
78571;SHT31;67861;51.966;5.672;2023-05-28T10:54:42;25.2;36.7
78571;SHT31;67861;51.966;5.672;2023-05-28T10:57:17;25.2;38.2
78571;SHT31;67861;51.966;5.672;2023-05-28T10:59:50;25.4;37.7
78571;SHT31;67861;51.966;5.672;2023-05-28T11:02:22;25.5;37.0
78571;SHT31;67861;51.966;5.672;2023-05-28T11:04:54;25.6;37.1
78571;SHT31;67861;51.966;5.672;2023-05-28T11:07:31;25.6;36.3
78571;SHT31;67861;51.966;5.672;2023-05-28T11:10:03;25.7;35.4
78571;SHT31;67861;51.966;5.672;2023-05-28T11:12:36;25.7;37.6
78571;SHT31;67861;51.966;5.672;2023-05-28T11:15:08;25.8;35.5
78571;SHT31;67861;51.966;5.672;2023-05-28T11:17:39;25.8;35.7
78571;SHT31;67861;51.966;5.672;2023-05-28T11:20:17;25.8;36.5
78571;SHT31;67861;51.966;5.672;2023-05-28T11:22:48;25.8;34.2
78571;SHT31;67861;51.966;5.672;2023-05-28T11:25:18;25.9;34.0
78571;SHT31;67861;51.966;5.672;2023-05-28T11:27:49;25.9;35.8
78571;SHT31;67861;51.966;5.672;2023-05-28T11:30:19;25.9;35.0
78571;SHT31;67861;51.966;5.672;2023-05-28T11:32:52;25.9;35.5
78571;SHT31;67861;51.966;5.672;2023-05-28T11:35:26;25.9;36.2
78571;SHT31;67861;51.966;5.672;2023-05-28T11:37:58;25.9;35.4
78571;SHT31;67861;51.966;5.672;2023-05-28T11:40:33;26.0;34.4
78571;SHT31;67861;51.966;5.672;2023-05-28T11:43:02;26.0;35.1
78571;SHT31;67861;51.966;5.672;2023-05-28T11:45:38;26.2;34.9
78571;SHT31;67861;51.966;5.672;2023-05-28T11:48:14;26.2;33.6
78571;SHT31;67861;51.966;5.672;2023-05-28T11:50:47;26.2;34.6
78571;SHT31;67861;51.966;5.672;2023-05-28T11:53:17;26.3;35.4
78571;SHT31;67861;51.966;5.672;2023-05-28T11:55:47;26.3;33.0
78571;SHT31;67861;51.966;5.672;2023-05-28T11:58:16;26.3;33.5
78571;SHT31;67861;51.966;5.672;2023-05-28T12:00:55;26.3;33.0
78571;SHT31;67861;51.966;5.672;2023-05-28T12:03:21;26.4;32.8
78571;SHT31;67861;51.966;5.672;2023-05-28T12:05:50;26.4;33.5
78571;SHT31;67861;51.966;5.672;2023-05-28T12:08:20;26.5;33.9
78571;SHT31;67861;51.966;5.672;2023-05-28T12:10:50;26.6;34.3
78571;SHT31;67861;51.966;5.672;2023-05-28T12:13:20;26.6;34.9
78571;SHT31;67861;51.966;5.672;2023-05-28T12:15:56;26.7;34.0
78571;SHT31;67861;51.966;5.672;2023-05-28T12:18:27;26.8;33.9
78571;SHT31;67861;51.966;5.672;2023-05-28T12:20:58;26.9;33.9
78571;SHT31;67861;51.966;5.672;2023-05-28T12:23:28;26.9;33.4
78571;SHT31;67861;51.966;5.672;2023-05-28T12:25:58;27.0;33.8
78571;SHT31;67861;51.966;5.672;2023-05-28T12:28:29;27.1;34.7
78571;SHT31;67861;51.966;5.672;2023-05-28T12:30:59;27.2;32.2
78571;SHT31;67861;51.966;5.672;2023-05-28T12:33:30;27.3;32.3
78571;SHT31;67861;51.966;5.672;2023-05-28T12:36:00;27.3;31.9
78571;SHT31;67861;51.966;5.672;2023-05-28T12:38:30;27.3;32.5
78571;SHT31;67861;51.966;5.672;2023-05-28T12:41:00;27.3;32.0
78571;SHT31;67861;51.966;5.672;2023-05-28T12:43:31;27.4;33.2
78571;SHT31;67861;51.966;5.672;2023-05-28T12:46:01;27.4;31.9
78571;SHT31;67861;51.966;5.672;2023-05-28T12:48:30;27.4;31.4
78571;SHT31;67861;51.966;5.672;2023-05-28T12:51:00;27.5;32.1
78571;SHT31;67861;51.966;5.672;2023-05-28T12:53:30;27.5;30.9
78571;SHT31;67861;51.966;5.672;2023-05-28T12:56:00;27.5;30.9
78571;SHT31;67861;51.966;5.672;2023-05-28T12:58:29;27.5;31.0
78571;SHT31;67861;51.966;5.672;2023-05-28T13:00:59;27.5;32.1
78571;SHT31;67861;51.966;5.672;2023-05-28T13:03:30;27.5;31.9
78571;SHT31;67861;51.966;5.672;2023-05-28T13:06:01;27.5;31.4
78571;SHT31;67861;51.966;5.672;2023-05-28T13:08:30;27.5;31.5
78571;SHT31;67861;51.966;5.672;2023-05-28T13:11:00;27.5;32.5
78571;SHT31;67861;51.966;5.672;2023-05-28T13:13:30;27.5;32.7
78571;SHT31;67861;51.966;5.672;2023-05-28T13:15:59;27.6;32.2
78571;SHT31;67861;51.966;5.672;2023-05-28T13:18:29;27.6;32.1
78571;SHT31;67861;51.966;5.672;2023-05-28T13:20:58;27.6;33.2
78571;SHT31;67861;51.966;5.672;2023-05-28T13:23:28;27.6;32.6
78571;SHT31;67861;51.966;5.672;2023-05-28T13:25:58;27.6;32.4
78571;SHT31;67861;51.966;5.672;2023-05-28T13:28:27;27.6;32.4
78571;SHT31;67861;51.966;5.672;2023-05-28T13:30:57;27.6;32.5
78571;SHT31;67861;51.966;5.672;2023-05-28T13:33:27;27.5;33.4
78571;SHT31;67861;51.966;5.672;2023-05-28T13:35:58;27.5;32.3
78571;SHT31;67861;51.966;5.672;2023-05-28T13:38:28;27.5;32.6
78571;SHT31;67861;51.966;5.672;2023-05-28T13:40:57;27.5;32.2
78571;SHT31;67861;51.966;5.672;2023-05-28T13:43:27;27.4;32.5
78571;SHT31;67861;51.966;5.672;2023-05-28T13:45:57;27.4;33.1
78571;SHT31;67861;51.966;5.672;2023-05-28T13:48:27;27.4;33.0
78571;SHT31;67861;51.966;5.672;2023-05-28T13:50:56;27.4;32.2
78571;SHT31;67861;51.966;5.672;2023-05-28T13:53:27;27.4;32.5
78571;SHT31;67861;51.966;5.672;2023-05-28T13:55:58;27.4;32.7
78571;SHT31;67861;51.966;5.672;2023-05-28T13:58:28;27.4;32.5
78571;SHT31;67861;51.966;5.672;2023-05-28T14:00:58;27.4;32.8
78571;SHT31;67861;51.966;5.672;2023-05-28T14:03:27;27.3;32.5
78571;SHT31;67861;51.966;5.672;2023-05-28T14:05:59;27.3;33.7
78571;SHT31;67861;51.966;5.672;2023-05-28T14:08:31;27.2;32.9
78571;SHT31;67861;51.966;5.672;2023-05-28T14:11:02;27.2;32.4
78571;SHT31;67861;51.966;5.672;2023-05-28T14:13:32;27.2;33.9
78571;SHT31;67861;51.966;5.672;2023-05-28T14:16:02;27.2;33.5
78571;SHT31;67861;51.966;5.672;2023-05-28T14:18:33;27.1;33.1
78571;SHT31;67861;51.966;5.672;2023-05-28T14:21:03;27.1;33.5
78571;SHT31;67861;51.966;5.672;2023-05-28T14:23:34;27.1;33.9
78571;SHT31;67861;51.966;5.672;2023-05-28T14:26:03;27.1;32.7
78571;SHT31;67861;51.966;5.672;2023-05-28T14:28:33;27.1;32.5
78571;SHT31;67861;51.966;5.672;2023-05-28T14:31:04;27.1;32.3
78571;SHT31;67861;51.966;5.672;2023-05-28T14:33:34;27.1;33.5
78571;SHT31;67861;51.966;5.672;2023-05-28T14:36:03;27.1;32.8
78571;SHT31;67861;51.966;5.672;2023-05-28T14:38:33;27.1;32.7
78571;SHT31;67861;51.966;5.672;2023-05-28T14:41:02;27.1;33.7
78571;SHT31;67861;51.966;5.672;2023-05-28T14:43:34;27.2;32.8
78571;SHT31;67861;51.966;5.672;2023-05-28T14:46:03;27.2;32.4
78571;SHT31;67861;51.966;5.672;2023-05-28T14:48:33;27.2;32.0
78571;SHT31;67861;51.966;5.672;2023-05-28T14:51:03;27.2;33.6
78571;SHT31;67861;51.966;5.672;2023-05-28T14:53:34;27.2;33.6
78571;SHT31;67861;51.966;5.672;2023-05-28T14:56:04;27.3;31.7
78571;SHT31;67861;51.966;5.672;2023-05-28T14:58:34;27.3;31.9
78571;SHT31;67861;51.966;5.672;2023-05-28T15:01:03;27.3;31.5
78571;SHT31;67861;51.966;5.672;2023-05-28T15:03:33;27.3;32.0
78571;SHT31;67861;51.966;5.672;2023-05-28T15:06:03;27.3;30.9
78571;SHT31;67861;51.966;5.672;2023-05-28T15:08:33;27.3;31.0
78571;SHT31;67861;51.966;5.672;2023-05-28T15:11:02;27.2;31.0
78571;SHT31;67861;51.966;5.672;2023-05-28T15:13:32;27.2;31.2
78571;SHT31;67861;51.966;5.672;2023-05-28T15:16:02;27.2;31.7
78571;SHT31;67861;51.966;5.672;2023-05-28T15:18:32;27.2;31.3
78571;SHT31;67861;51.966;5.672;2023-05-28T15:21:04;27.2;31.5
78571;SHT31;67861;51.966;5.672;2023-05-28T15:23:34;27.2;31.5
78571;SHT31;67861;51.966;5.672;2023-05-28T15:26:04;27.2;31.3
78571;SHT31;67861;51.966;5.672;2023-05-28T15:28:34;27.2;30.8
78571;SHT31;67861;51.966;5.672;2023-05-28T15:31:04;27.2;30.7
78571;SHT31;67861;51.966;5.672;2023-05-28T15:33:34;27.2;30.8
78571;SHT31;67861;51.966;5.672;2023-05-28T15:36:05;27.1;30.6
78571;SHT31;67861;51.966;5.672;2023-05-28T15:38:35;27.1;30.8
78571;SHT31;67861;51.966;5.672;2023-05-28T15:41:06;27.0;31.0
78571;SHT31;67861;51.966;5.672;2023-05-28T15:43:36;27.0;31.1
78571;SHT31;67861;51.966;5.672;2023-05-28T15:46:06;26.9;32.2
78571;SHT31;67861;51.966;5.672;2023-05-28T15:48:36;26.9;31.4
78571;SHT31;67861;51.966;5.672;2023-05-28T15:51:07;26.9;30.3
78571;SHT31;67861;51.966;5.672;2023-05-28T15:53:37;26.8;30.7
78571;SHT31;67861;51.966;5.672;2023-05-28T15:56:10;26.8;30.8
78571;SHT31;67861;51.966;5.672;2023-05-28T15:58:40;26.7;30.8
78571;SHT31;67861;51.966;5.672;2023-05-28T16:01:10;26.7;30.6
78571;SHT31;67861;51.966;5.672;2023-05-28T16:03:43;26.7;30.6
78571;SHT31;67861;51.966;5.672;2023-05-28T16:06:13;26.6;31.3
78571;SHT31;67861;51.966;5.672;2023-05-28T16:08:43;26.6;31.7
78571;SHT31;67861;51.966;5.672;2023-05-28T16:11:13;26.7;31.5
78571;SHT31;67861;51.966;5.672;2023-05-28T16:13:45;26.7;30.6
78571;SHT31;67861;51.966;5.672;2023-05-28T16:16:17;26.7;30.6
78571;SHT31;67861;51.966;5.672;2023-05-28T16:18:48;26.7;29.9
78571;SHT31;67861;51.966;5.672;2023-05-28T16:21:18;26.7;30.4
78571;SHT31;67861;51.966;5.672;2023-05-28T16:23:49;26.6;30.0
78571;SHT31;67861;51.966;5.672;2023-05-28T16:26:18;26.5;29.7